Positano Jet — IFTU — position and weather

sailwx.info

Track history (hours):
 
Tides and Currents Weather Stations Pressure Air Temp Water Temp Dewpoint Dewpoint Depression Visibility Wind Speed Wind Dir Waves Ship Positions

Positano Jet

Last reported at 2014-Jul-31 10:26 UTC. Time now 2014-Jul-31 11:34 UTC.
Position N 40°35' E 014°22'.

Length 23 m; draft 2 m.

Type: Ship. MMSI: 247160800.

Date/timePositionNaut miles runAvg speedWind from/ knotsBaromVisibWave heightAir tempDewpointWater temp
2014-Jul-31 10:26N 40°35' E 014°22'6 6.7
2014-Jul-31 09:33N 40°33' E 014°14'1211.4
2014-Jul-31 08:32N 40°37' E 014°29'8 0.4
2014-Jul-30 13:26N 40°34' E 014°19'2 1.7
2014-Jul-30 12:30N 40°33' E 014°17'1 0.8
2014-Jul-30 11:33N 40°33' E 014°16'0 0.2
2014-Jul-30 10:19N 40°34' E 014°16'1 1.6
2014-Jul-30 09:33N 40°33' E 014°14'5 0.3
2014-Jul-29 17:18N 40°34' E 014°21'2 2.0
2014-Jul-29 16:33N 40°34' E 014°19'3 0.8
2014-Jul-29 13:31N 40°35' E 014°22'6 6.0
2014-Jul-29 12:33N 40°34' E 014°15'3 1.2
2014-Jul-29 10:12N 40°34' E 014°19'3 4.8
2014-Jul-29 09:32N 40°33' E 014°14'6 0.4
2014-Jul-28 17:21N 40°35' E 014°22'0 0.1
2014-Jul-28 16:28N 40°35' E 014°22'0 0.1
2014-Jul-28 13:29N 40°34' E 014°21'4 4.3
2014-Jul-28 12:33N 40°34' E 014°16'5 2.1
2014-Jul-28 10:23N 40°35' E 014°22'6 7.4
2014-Jul-28 09:34N 40°33' E 014°14'6 0.4
2014-Jul-27 17:19N 40°35' E 014°22'0 0.2
2014-Jul-27 16:31N 40°35' E 014°22'0 0.1
2014-Jul-27 13:31N 40°35' E 014°22'2 2.2
2014-Jul-27 12:32N 40°34' E 014°19'8 6.6
2014-Jul-27 11:16N 40°37' E 014°29'3 4.4
2014-Jul-27 10:28N 40°36' E 014°25'9 9.4
2014-Jul-27 09:34N 40°33' E 014°14'1211.1
2014-Jul-27 08:29N 40°37' E 014°29'7 0.5
2014-Jul-26 17:17N 40°34' E 014°20'1 1.6
2014-Jul-26 16:33N 40°34' E 014°19'9 6.9
2014-Jul-26 15:17N 40°37' E 014°29'6 3.5
2014-Jul-26 13:29N 40°35' E 014°22'6 6.0
2014-Jul-26 12:33N 40°33' E 014°15'1211.5
2014-Jul-26 11:32N 40°38' E 014°29'8 6.1
2014-Jul-26 10:16N 40°34' E 014°20'4 6.0
2014-Jul-26 09:32N 40°33' E 014°14'6 0.4
2014-Jul-25 17:28N 40°35' E 014°22'2 1.9
2014-Jul-25 16:32N 40°34' E 014°20'0 0.0
2014-Jul-25 13:27N 40°34' E 014°20'3 2.9
2014-Jul-25 12:33N 40°34' E 014°17'10 9.0
2014-Jul-25 11:26N 40°38' E 014°29'6 5.5
2014-Jul-25 10:22N 40°35' E 014°22'6 7.5
2014-Jul-25 09:32N 40°33' E 014°14'1111.6
2014-Jul-25 08:33N 40°37' E 014°29'2 0.1
2014-Jul-24 17:30N 40°36' E 014°26'5 5.0
2014-Jul-24 16:31N 40°34' E 014°20'2 0.6
2014-Jul-24 13:31N 40°35' E 014°22'6 5.8
2014-Jul-24 12:34N 40°34' E 014°15'11 9.0
2014-Jul-24 11:18N 40°38' E 014°29'2 3.2
2014-Jul-24 10:31N 40°36' E 014°26'10 9.5
2014-Jul-24 09:31N 40°33' E 014°14'1212.2
2014-Jul-24 08:33N 40°37' E 014°29'0 0.0
2014-Jul-23 17:33N 40°37' E 014°28'3 2.7
2014-Jul-23 16:23N 40°36' E 014°24'4 3.3
2014-Jul-23 15:10N 40°37' E 014°29'6 3.5
2014-Jul-23 13:30N 40°35' E 014°22'5 5.3
2014-Jul-23 12:34N 40°34' E 014°16'1110.8
2014-Jul-23 11:33N 40°37' E 014°29'2 2.0
2014-Jul-23 10:33N 40°36' E 014°27'1010.0
2014-Jul-23 09:33N 40°33' E 014°14'1111.3
2014-Jul-23 08:32N 40°37' E 014°29'1 0.2
2014-Jul-23 06:24N 40°37' E 014°29'9 0.5
2014-Jul-22 13:26N 40°34' E 014°19'3 3.7
2014-Jul-22 12:32N 40°33' E 014°14'0 0.0
2014-Jul-22 11:32N 40°33' E 014°14'0 0.0
2014-Jul-22 10:33N 40°33' E 014°14'0 0.0
2014-Jul-22 09:33N 40°33' E 014°14'1111.0
2014-Jul-22 08:31N 40°37' E 014°29'2 0.2
2014-Jul-21 17:29N 40°36' E 014°26'6 6.7
2014-Jul-21 16:33N 40°34' E 014°18'9 6.3
2014-Jul-21 15:07N 40°37' E 014°29'0 0.0
2014-Jul-21 14:32N 40°37' E 014°29'7 7.0
2014-Jul-21 13:33N 40°34' E 014°21'4 4.0
2014-Jul-21 12:33N 40°34' E 014°16'1110.3
2014-Jul-21 11:31N 40°37' E 014°29'  
Track history (hours):
 
Tides and Currents Weather Stations Pressure Air Temp Water Temp Dewpoint Dewpoint Depression Visibility Wind Speed Wind Dir Waves Ship Positions

Positano Jet

Last reported at 2014-Jul-31 10:26 UTC. Time now 2014-Jul-31 11:34 UTC.
Position N 40°35' E 014°22'.

Length 23 m; draft 2 m.

Type: Ship. MMSI: 247160800.

Date/timePositionNaut miles runAvg speedWind from/ knotsBaromVisibWave heightAir tempDewpointWater temp
2014-Jul-31 10:26N 40°35' E 014°22'6 6.7
2014-Jul-31 09:33N 40°33' E 014°14'1211.4
2014-Jul-31 08:32N 40°37' E 014°29'8 0.4
2014-Jul-30 13:26N 40°34' E 014°19'2 1.7
2014-Jul-30 12:30N 40°33' E 014°17'1 0.8
2014-Jul-30 11:33N 40°33' E 014°16'0 0.2
2014-Jul-30 10:19N 40°34' E 014°16'1 1.6
2014-Jul-30 09:33N 40°33' E 014°14'5 0.3
2014-Jul-29 17:18N 40°34' E 014°21'2 2.0
2014-Jul-29 16:33N 40°34' E 014°19'3 0.8
2014-Jul-29 13:31N 40°35' E 014°22'6 6.0
2014-Jul-29 12:33N 40°34' E 014°15'3 1.2
2014-Jul-29 10:12N 40°34' E 014°19'3 4.8
2014-Jul-29 09:32N 40°33' E 014°14'6 0.4
2014-Jul-28 17:21N 40°35' E 014°22'0 0.1
2014-Jul-28 16:28N 40°35' E 014°22'0 0.1
2014-Jul-28 13:29N 40°34' E 014°21'4 4.3
2014-Jul-28 12:33N 40°34' E 014°16'5 2.1
2014-Jul-28 10:23N 40°35' E 014°22'6 7.4
2014-Jul-28 09:34N 40°33' E 014°14'6 0.4
2014-Jul-27 17:19N 40°35' E 014°22'0 0.2
2014-Jul-27 16:31N 40°35' E 014°22'0 0.1
2014-Jul-27 13:31N 40°35' E 014°22'2 2.2
2014-Jul-27 12:32N 40°34' E 014°19'8 6.6
2014-Jul-27 11:16N 40°37' E 014°29'3 4.4
2014-Jul-27 10:28N 40°36' E 014°25'9 9.4
2014-Jul-27 09:34N 40°33' E 014°14'1211.1
2014-Jul-27 08:29N 40°37' E 014°29'7 0.5
2014-Jul-26 17:17N 40°34' E 014°20'1 1.6
2014-Jul-26 16:33N 40°34' E 014°19'9 6.9
2014-Jul-26 15:17N 40°37' E 014°29'6 3.5
2014-Jul-26 13:29N 40°35' E 014°22'6 6.0
2014-Jul-26 12:33N 40°33' E 014°15'1211.5
2014-Jul-26 11:32N 40°38' E 014°29'8 6.1
2014-Jul-26 10:16N 40°34' E 014°20'4 6.0
2014-Jul-26 09:32N 40°33' E 014°14'6 0.4
2014-Jul-25 17:28N 40°35' E 014°22'2 1.9
2014-Jul-25 16:32N 40°34' E 014°20'0 0.0
2014-Jul-25 13:27N 40°34' E 014°20'3 2.9
2014-Jul-25 12:33N 40°34' E 014°17'10 9.0
2014-Jul-25 11:26N 40°38' E 014°29'6 5.5
2014-Jul-25 10:22N 40°35' E 014°22'6 7.5
2014-Jul-25 09:32N 40°33' E 014°14'1111.6
2014-Jul-25 08:33N 40°37' E 014°29'2 0.1
2014-Jul-24 17:30N 40°36' E 014°26'5 5.0
2014-Jul-24 16:31N 40°34' E 014°20'2 0.6
2014-Jul-24 13:31N 40°35' E 014°22'6 5.8
2014-Jul-24 12:34N 40°34' E 014°15'11 9.0
2014-Jul-24 11:18N 40°38' E 014°29'2 3.2
2014-Jul-24 10:31N 40°36' E 014°26'10 9.5
2014-Jul-24 09:31N 40°33' E 014°14'1212.2
2014-Jul-24 08:33N 40°37' E 014°29'0 0.0
2014-Jul-23 17:33N 40°37' E 014°28'3 2.7
2014-Jul-23 16:23N 40°36' E 014°24'4 3.3
2014-Jul-23 15:10N 40°37' E 014°29'6 3.5
2014-Jul-23 13:30N 40°35' E 014°22'5 5.3
2014-Jul-23 12:34N 40°34' E 014°16'1110.8
2014-Jul-23 11:33N 40°37' E 014°29'2 2.0
2014-Jul-23 10:33N 40°36' E 014°27'1010.0
2014-Jul-23 09:33N 40°33' E 014°14'1111.3
2014-Jul-23 08:32N 40°37' E 014°29'1 0.2
2014-Jul-23 06:24N 40°37' E 014°29'9 0.5
2014-Jul-22 13:26N 40°34' E 014°19'3 3.7
2014-Jul-22 12:32N 40°33' E 014°14'0 0.0
2014-Jul-22 11:32N 40°33' E 014°14'0 0.0
2014-Jul-22 10:33N 40°33' E 014°14'0 0.0
2014-Jul-22 09:33N 40°33' E 014°14'1111.0
2014-Jul-22 08:31N 40°37' E 014°29'2 0.2
2014-Jul-21 17:29N 40°36' E 014°26'6 6.7
2014-Jul-21 16:33N 40°34' E 014°18'9 6.3
2014-Jul-21 15:07N 40°37' E 014°29'0 0.0
2014-Jul-21 14:32N 40°37' E 014°29'7 7.0
2014-Jul-21 13:33N 40°34' E 014°21'4 4.0
2014-Jul-21 12:33N 40°34' E 014°16'1110.3
2014-Jul-21 11:31N 40°37' E 014°29'  

Dump ship's entire track history